sensor_id;sensor_type;location;lat;lon;timestamp;P1;durP1;ratioP1;P2;durP2;ratioP2
3726;SDS011;1879;45.876;12.300;2023-08-12T00:00:30;7.30;;;4.77;;
3726;SDS011;1879;45.876;12.300;2023-08-12T00:02:58;4.80;;;4.40;;
3726;SDS011;1879;45.876;12.300;2023-08-12T00:05:25;6.10;;;4.33;;
3726;SDS011;1879;45.876;12.300;2023-08-12T00:07:52;6.50;;;5.10;;
3726;SDS011;1879;45.876;12.300;2023-08-12T00:10:20;5.53;;;5.03;;
3726;SDS011;1879;45.876;12.300;2023-08-12T00:12:47;6.00;;;5.17;;
3726;SDS011;1879;45.876;12.300;2023-08-12T00:15:14;6.27;;;5.20;;
3726;SDS011;1879;45.876;12.300;2023-08-12T00:17:41;5.50;;;4.90;;
3726;SDS011;1879;45.876;12.300;2023-08-12T00:20:09;5.97;;;5.37;;
3726;SDS011;1879;45.876;12.300;2023-08-12T00:22:37;5.77;;;5.17;;
3726;SDS011;1879;45.876;12.300;2023-08-12T00:25:05;5.10;;;4.60;;
3726;SDS011;1879;45.876;12.300;2023-08-12T00:27:34;6.37;;;5.03;;
3726;SDS011;1879;45.876;12.300;2023-08-12T00:30:02;4.87;;;4.47;;
3726;SDS011;1879;45.876;12.300;2023-08-12T00:32:30;5.97;;;5.47;;
3726;SDS011;1879;45.876;12.300;2023-08-12T00:34:57;5.37;;;4.87;;
3726;SDS011;1879;45.876;12.300;2023-08-12T00:37:24;9.03;;;5.30;;
3726;SDS011;1879;45.876;12.300;2023-08-12T00:39:51;5.30;;;4.80;;
3726;SDS011;1879;45.876;12.300;2023-08-12T00:42:18;6.70;;;6.10;;
3726;SDS011;1879;45.876;12.300;2023-08-12T00:44:46;5.60;;;5.10;;
3726;SDS011;1879;45.876;12.300;2023-08-12T00:47:13;7.10;;;5.60;;
3726;SDS011;1879;45.876;12.300;2023-08-12T00:49:41;4.83;;;4.43;;
3726;SDS011;1879;45.876;12.300;2023-08-12T00:52:10;5.90;;;5.20;;
3726;SDS011;1879;45.876;12.300;2023-08-12T00:54:37;5.30;;;4.90;;
3726;SDS011;1879;45.876;12.300;2023-08-12T00:57:05;6.03;;;5.43;;
3726;SDS011;1879;45.876;12.300;2023-08-12T00:59:33;5.50;;;5.00;;
3726;SDS011;1879;45.876;12.300;2023-08-12T01:02:03;5.63;;;4.93;;
3726;SDS011;1879;45.876;12.300;2023-08-12T01:04:31;6.43;;;5.37;;
3726;SDS011;1879;45.876;12.300;2023-08-12T01:06:58;5.87;;;5.30;;
3726;SDS011;1879;45.876;12.300;2023-08-12T01:09:25;10.00;;;5.90;;
3726;SDS011;1879;45.876;12.300;2023-08-12T01:11:54;6.10;;;5.60;;
3726;SDS011;1879;45.876;12.300;2023-08-12T01:14:28;5.23;;;4.73;;
3726;SDS011;1879;45.876;12.300;2023-08-12T01:17:06;6.90;;;5.63;;
3726;SDS011;1879;45.876;12.300;2023-08-12T01:19:35;5.87;;;5.37;;
3726;SDS011;1879;45.876;12.300;2023-08-12T01:22:04;7.10;;;5.47;;
3726;SDS011;1879;45.876;12.300;2023-08-12T01:24:36;5.00;;;4.60;;
3726;SDS011;1879;45.876;12.300;2023-08-12T01:27:04;5.80;;;5.30;;
3726;SDS011;1879;45.876;12.300;2023-08-12T01:29:32;5.73;;;4.77;;
3726;SDS011;1879;45.876;12.300;2023-08-12T01:32:02;5.80;;;5.30;;
3726;SDS011;1879;45.876;12.300;2023-08-12T01:34:36;5.67;;;5.17;;
3726;SDS011;1879;45.876;12.300;2023-08-12T01:37:10;5.70;;;5.20;;
3726;SDS011;1879;45.876;12.300;2023-08-12T01:39:41;6.07;;;5.03;;
3726;SDS011;1879;45.876;12.300;2023-08-12T01:42:11;5.33;;;4.93;;
3726;SDS011;1879;45.876;12.300;2023-08-12T01:44:39;6.00;;;5.40;;
3726;SDS011;1879;45.876;12.300;2023-08-12T01:47:07;5.40;;;4.90;;
3726;SDS011;1879;45.876;12.300;2023-08-12T01:49:35;5.20;;;4.70;;
3726;SDS011;1879;45.876;12.300;2023-08-12T01:52:02;5.30;;;4.80;;
3726;SDS011;1879;45.876;12.300;2023-08-12T01:54:29;5.97;;;5.57;;
3726;SDS011;1879;45.876;12.300;2023-08-12T01:57:01;5.73;;;5.20;;
3726;SDS011;1879;45.876;12.300;2023-08-12T01:59:30;5.70;;;5.20;;
3726;SDS011;1879;45.876;12.300;2023-08-12T02:01:57;5.20;;;4.80;;
3726;SDS011;1879;45.876;12.300;2023-08-12T02:04:24;6.30;;;5.30;;
3726;SDS011;1879;45.876;12.300;2023-08-12T02:06:52;6.57;;;6.07;;
3726;SDS011;1879;45.876;12.300;2023-08-12T02:09:19;6.33;;;5.73;;
3726;SDS011;1879;45.876;12.300;2023-08-12T02:11:47;5.53;;;5.13;;
3726;SDS011;1879;45.876;12.300;2023-08-12T02:14:15;6.00;;;5.50;;
3726;SDS011;1879;45.876;12.300;2023-08-12T02:16:42;6.00;;;4.93;;
3726;SDS011;1879;45.876;12.300;2023-08-12T02:19:09;6.00;;;5.50;;
3726;SDS011;1879;45.876;12.300;2023-08-12T02:21:36;7.27;;;5.90;;
3726;SDS011;1879;45.876;12.300;2023-08-12T02:24:04;5.77;;;5.27;;
3726;SDS011;1879;45.876;12.300;2023-08-12T02:26:31;5.33;;;4.83;;
3726;SDS011;1879;45.876;12.300;2023-08-12T02:28:58;7.00;;;5.80;;
3726;SDS011;1879;45.876;12.300;2023-08-12T02:31:26;9.10;;;5.60;;
3726;SDS011;1879;45.876;12.300;2023-08-12T02:33:53;8.73;;;6.27;;
3726;SDS011;1879;45.876;12.300;2023-08-12T02:36:20;6.30;;;5.80;;
3726;SDS011;1879;45.876;12.300;2023-08-12T02:38:47;5.70;;;5.07;;
3726;SDS011;1879;45.876;12.300;2023-08-12T02:41:14;5.97;;;5.57;;
3726;SDS011;1879;45.876;12.300;2023-08-12T02:43:41;5.87;;;5.27;;
3726;SDS011;1879;45.876;12.300;2023-08-12T02:46:08;5.73;;;5.23;;
3726;SDS011;1879;45.876;12.300;2023-08-12T02:48:37;5.70;;;5.20;;
3726;SDS011;1879;45.876;12.300;2023-08-12T02:51:04;6.60;;;5.57;;
3726;SDS011;1879;45.876;12.300;2023-08-12T02:53:31;7.20;;;6.60;;
3726;SDS011;1879;45.876;12.300;2023-08-12T02:55:58;5.93;;;5.47;;
3726;SDS011;1879;45.876;12.300;2023-08-12T02:58:25;6.30;;;5.70;;
3726;SDS011;1879;45.876;12.300;2023-08-12T03:00:54;6.10;;;5.60;;
3726;SDS011;1879;45.876;12.300;2023-08-12T03:03:21;6.40;;;5.90;;
3726;SDS011;1879;45.876;12.300;2023-08-12T03:05:49;5.80;;;5.30;;
3726;SDS011;1879;45.876;12.300;2023-08-12T03:08:16;6.40;;;5.90;;
3726;SDS011;1879;45.876;12.300;2023-08-12T03:10:44;6.63;;;6.03;;
3726;SDS011;1879;45.876;12.300;2023-08-12T03:13:11;5.60;;;5.20;;
3726;SDS011;1879;45.876;12.300;2023-08-12T03:15:41;5.97;;;5.50;;
3726;SDS011;1879;45.876;12.300;2023-08-12T03:18:08;6.50;;;5.93;;
3726;SDS011;1879;45.876;12.300;2023-08-12T03:20:36;6.13;;;5.60;;
3726;SDS011;1879;45.876;12.300;2023-08-12T03:23:04;6.43;;;5.80;;
3726;SDS011;1879;45.876;12.300;2023-08-12T03:25:31;6.90;;;6.30;;
3726;SDS011;1879;45.876;12.300;2023-08-12T03:27:58;6.97;;;6.37;;
3726;SDS011;1879;45.876;12.300;2023-08-12T03:30:25;6.87;;;6.27;;
3726;SDS011;1879;45.876;12.300;2023-08-12T03:32:52;7.10;;;6.50;;
3726;SDS011;1879;45.876;12.300;2023-08-12T03:35:19;7.03;;;6.43;;
3726;SDS011;1879;45.876;12.300;2023-08-12T03:37:46;6.37;;;5.67;;
3726;SDS011;1879;45.876;12.300;2023-08-12T03:40:15;7.13;;;6.57;;
3726;SDS011;1879;45.876;12.300;2023-08-12T03:42:42;6.20;;;5.70;;
3726;SDS011;1879;45.876;12.300;2023-08-12T03:45:09;6.40;;;5.90;;
3726;SDS011;1879;45.876;12.300;2023-08-12T03:47:36;6.40;;;5.90;;
3726;SDS011;1879;45.876;12.300;2023-08-12T03:50:04;7.47;;;6.77;;
3726;SDS011;1879;45.876;12.300;2023-08-12T03:52:32;6.40;;;5.90;;
3726;SDS011;1879;45.876;12.300;2023-08-12T03:54:59;6.73;;;6.13;;
3726;SDS011;1879;45.876;12.300;2023-08-12T03:57:27;7.63;;;6.20;;
3726;SDS011;1879;45.876;12.300;2023-08-12T03:59:54;7.37;;;6.70;;
3726;SDS011;1879;45.876;12.300;2023-08-12T04:02:21;6.60;;;6.00;;
3726;SDS011;1879;45.876;12.300;2023-08-12T04:04:48;6.20;;;5.70;;
3726;SDS011;1879;45.876;12.300;2023-08-12T04:07:16;6.97;;;6.37;;
3726;SDS011;1879;45.876;12.300;2023-08-12T04:09:43;6.97;;;6.47;;
3726;SDS011;1879;45.876;12.300;2023-08-12T04:12:10;7.07;;;6.37;;
3726;SDS011;1879;45.876;12.300;2023-08-12T04:14:38;6.53;;;5.97;;
3726;SDS011;1879;45.876;12.300;2023-08-12T04:17:06;6.67;;;5.97;;
3726;SDS011;1879;45.876;12.300;2023-08-12T04:19:33;6.60;;;6.10;;
3726;SDS011;1879;45.876;12.300;2023-08-12T04:22:00;6.60;;;6.00;;
3726;SDS011;1879;45.876;12.300;2023-08-12T04:24:27;7.33;;;6.47;;
3726;SDS011;1879;45.876;12.300;2023-08-12T04:26:54;6.63;;;6.10;;
3726;SDS011;1879;45.876;12.300;2023-08-12T04:29:21;7.43;;;6.77;;
3726;SDS011;1879;45.876;12.300;2023-08-12T04:31:49;6.70;;;6.13;;
3726;SDS011;1879;45.876;12.300;2023-08-12T04:34:17;6.60;;;5.80;;
3726;SDS011;1879;45.876;12.300;2023-08-12T04:36:44;7.30;;;6.70;;
3726;SDS011;1879;45.876;12.300;2023-08-12T04:39:12;7.70;;;7.00;;
3726;SDS011;1879;45.876;12.300;2023-08-12T04:41:39;6.90;;;6.30;;
3726;SDS011;1879;45.876;12.300;2023-08-12T04:44:06;7.30;;;6.60;;
3726;SDS011;1879;45.876;12.300;2023-08-12T04:46:35;7.33;;;5.70;;
3726;SDS011;1879;45.876;12.300;2023-08-12T04:49:03;6.70;;;6.17;;
3726;SDS011;1879;45.876;12.300;2023-08-12T04:51:30;8.07;;;7.40;;
3726;SDS011;1879;45.876;12.300;2023-08-12T04:53:57;7.53;;;6.83;;
3726;SDS011;1879;45.876;12.300;2023-08-12T04:56:26;7.33;;;6.73;;
3726;SDS011;1879;45.876;12.300;2023-08-12T04:58:54;7.60;;;7.00;;
3726;SDS011;1879;45.876;12.300;2023-08-12T05:01:21;7.93;;;7.30;;
3726;SDS011;1879;45.876;12.300;2023-08-12T05:03:48;7.27;;;6.67;;
3726;SDS011;1879;45.876;12.300;2023-08-12T05:06:16;6.47;;;5.97;;
3726;SDS011;1879;45.876;12.300;2023-08-12T05:08:43;6.20;;;5.70;;
3726;SDS011;1879;45.876;12.300;2023-08-12T05:11:10;5.90;;;5.40;;
3726;SDS011;1879;45.876;12.300;2023-08-12T05:13:37;7.03;;;6.33;;
3726;SDS011;1879;45.876;12.300;2023-08-12T05:16:04;7.93;;;7.17;;
3726;SDS011;1879;45.876;12.300;2023-08-12T05:18:31;6.40;;;5.80;;
3726;SDS011;1879;45.876;12.300;2023-08-12T05:20:58;6.20;;;5.67;;
3726;SDS011;1879;45.876;12.300;2023-08-12T05:23:28;6.50;;;6.00;;
3726;SDS011;1879;45.876;12.300;2023-08-12T05:25:55;7.90;;;6.50;;
3726;SDS011;1879;45.876;12.300;2023-08-12T05:28:22;6.73;;;6.03;;
3726;SDS011;1879;45.876;12.300;2023-08-12T05:30:49;6.93;;;6.33;;
3726;SDS011;1879;45.876;12.300;2023-08-12T05:33:16;6.90;;;6.40;;
3726;SDS011;1879;45.876;12.300;2023-08-12T05:35:43;6.77;;;6.27;;
3726;SDS011;1879;45.876;12.300;2023-08-12T05:38:13;6.97;;;6.37;;
3726;SDS011;1879;45.876;12.300;2023-08-12T05:40:41;7.03;;;6.43;;
3726;SDS011;1879;45.876;12.300;2023-08-12T05:43:08;7.77;;;7.07;;
3726;SDS011;1879;45.876;12.300;2023-08-12T05:45:35;7.40;;;6.80;;
3726;SDS011;1879;45.876;12.300;2023-08-12T05:48:03;7.40;;;6.77;;
3726;SDS011;1879;45.876;12.300;2023-08-12T05:50:30;8.83;;;7.77;;
3726;SDS011;1879;45.876;12.300;2023-08-12T05:52:57;6.90;;;6.33;;
3726;SDS011;1879;45.876;12.300;2023-08-12T05:55:24;7.20;;;6.60;;
3726;SDS011;1879;45.876;12.300;2023-08-12T05:57:53;8.03;;;7.30;;
3726;SDS011;1879;45.876;12.300;2023-08-12T06:00:20;7.40;;;6.73;;
3726;SDS011;1879;45.876;12.300;2023-08-12T06:02:47;7.10;;;6.50;;
3726;SDS011;1879;45.876;12.300;2023-08-12T06:05:14;8.10;;;7.30;;
3726;SDS011;1879;45.876;12.300;2023-08-12T06:07:41;6.93;;;6.33;;
3726;SDS011;1879;45.876;12.300;2023-08-12T06:10:08;6.13;;;5.63;;
3726;SDS011;1879;45.876;12.300;2023-08-12T06:12:36;8.23;;;6.80;;
3726;SDS011;1879;45.876;12.300;2023-08-12T06:15:04;6.50;;;6.00;;
3726;SDS011;1879;45.876;12.300;2023-08-12T06:17:32;7.10;;;6.40;;
3726;SDS011;1879;45.876;12.300;2023-08-12T06:19:59;6.77;;;6.20;;
3726;SDS011;1879;45.876;12.300;2023-08-12T06:22:26;6.43;;;5.40;;
3726;SDS011;1879;45.876;12.300;2023-08-12T06:24:53;5.83;;;5.33;;
3726;SDS011;1879;45.876;12.300;2023-08-12T06:27:20;6.03;;;5.43;;
3726;SDS011;1879;45.876;12.300;2023-08-12T06:29:47;6.70;;;5.57;;
3726;SDS011;1879;45.876;12.300;2023-08-12T06:32:16;6.27;;;5.73;;
3726;SDS011;1879;45.876;12.300;2023-08-12T06:34:43;6.43;;;5.93;;
3726;SDS011;1879;45.876;12.300;2023-08-12T06:37:10;6.03;;;5.20;;
3726;SDS011;1879;45.876;12.300;2023-08-12T06:39:37;6.40;;;5.80;;
3726;SDS011;1879;45.876;12.300;2023-08-12T06:42:04;5.70;;;5.23;;
3726;SDS011;1879;45.876;12.300;2023-08-12T06:44:31;5.80;;;5.30;;
3726;SDS011;1879;45.876;12.300;2023-08-12T06:46:58;6.03;;;5.53;;
3726;SDS011;1879;45.876;12.300;2023-08-12T06:49:26;8.27;;;6.00;;
3726;SDS011;1879;45.876;12.300;2023-08-12T06:51:53;6.03;;;5.60;;
3726;SDS011;1879;45.876;12.300;2023-08-12T06:54:20;5.90;;;5.30;;
3726;SDS011;1879;45.876;12.300;2023-08-12T06:56:49;6.43;;;5.93;;
3726;SDS011;1879;45.876;12.300;2023-08-12T06:59:16;5.80;;;5.10;;
3726;SDS011;1879;45.876;12.300;2023-08-12T07:01:43;6.30;;;5.80;;
3726;SDS011;1879;45.876;12.300;2023-08-12T07:04:10;5.83;;;5.30;;
3726;SDS011;1879;45.876;12.300;2023-08-12T07:06:39;5.80;;;5.30;;
3726;SDS011;1879;45.876;12.300;2023-08-12T07:09:06;5.47;;;5.07;;
3726;SDS011;1879;45.876;12.300;2023-08-12T07:11:33;6.03;;;5.53;;
3726;SDS011;1879;45.876;12.300;2023-08-12T07:14:00;6.23;;;5.73;;
3726;SDS011;1879;45.876;12.300;2023-08-12T07:16:27;6.40;;;5.80;;
3726;SDS011;1879;45.876;12.300;2023-08-12T07:18:54;6.20;;;5.60;;
3726;SDS011;1879;45.876;12.300;2023-08-12T07:21:21;10.53;;;5.83;;
3726;SDS011;1879;45.876;12.300;2023-08-12T07:23:49;6.77;;;6.13;;
3726;SDS011;1879;45.876;12.300;2023-08-12T07:26:19;6.00;;;5.40;;
3726;SDS011;1879;45.876;12.300;2023-08-12T07:28:46;5.47;;;4.97;;
3726;SDS011;1879;45.876;12.300;2023-08-12T07:31:13;6.17;;;5.63;;
3726;SDS011;1879;45.876;12.300;2023-08-12T07:33:40;6.10;;;5.30;;
3726;SDS011;1879;45.876;12.300;2023-08-12T07:36:07;7.07;;;5.43;;
3726;SDS011;1879;45.876;12.300;2023-08-12T07:38:34;6.93;;;6.33;;
3726;SDS011;1879;45.876;12.300;2023-08-12T07:41:02;6.63;;;6.03;;
3726;SDS011;1879;45.876;12.300;2023-08-12T07:43:29;6.93;;;6.33;;
3726;SDS011;1879;45.876;12.300;2023-08-12T07:45:56;6.13;;;5.53;;
3726;SDS011;1879;45.876;12.300;2023-08-12T07:48:23;6.50;;;5.90;;
3726;SDS011;1879;45.876;12.300;2023-08-12T07:50:54;6.03;;;5.53;;
3726;SDS011;1879;45.876;12.300;2023-08-12T07:53:23;5.60;;;5.20;;
3726;SDS011;1879;45.876;12.300;2023-08-12T07:55:50;6.57;;;6.00;;
3726;SDS011;1879;45.876;12.300;2023-08-12T07:58:18;7.03;;;6.33;;
3726;SDS011;1879;45.876;12.300;2023-08-12T08:00:45;6.17;;;5.63;;
3726;SDS011;1879;45.876;12.300;2023-08-12T08:03:12;5.73;;;5.33;;
3726;SDS011;1879;45.876;12.300;2023-08-12T08:05:40;6.40;;;5.80;;
3726;SDS011;1879;45.876;12.300;2023-08-12T08:08:07;6.43;;;5.83;;
3726;SDS011;1879;45.876;12.300;2023-08-12T08:10:34;6.60;;;6.00;;
3726;SDS011;1879;45.876;12.300;2023-08-12T08:13:01;9.03;;;5.73;;
3726;SDS011;1879;45.876;12.300;2023-08-12T08:15:29;6.67;;;6.07;;
3726;SDS011;1879;45.876;12.300;2023-08-12T08:17:57;6.40;;;5.83;;
3726;SDS011;1879;45.876;12.300;2023-08-12T08:20:24;6.20;;;5.60;;
3726;SDS011;1879;45.876;12.300;2023-08-12T08:22:51;8.63;;;5.03;;
3726;SDS011;1879;45.876;12.300;2023-08-12T08:25:20;6.77;;;6.17;;
3726;SDS011;1879;45.876;12.300;2023-08-12T08:27:47;7.37;;;6.77;;
3726;SDS011;1879;45.876;12.300;2023-08-12T08:30:14;6.30;;;5.80;;
3726;SDS011;1879;45.876;12.300;2023-08-12T08:32:43;6.63;;;5.90;;
3726;SDS011;1879;45.876;12.300;2023-08-12T08:35:11;6.47;;;5.97;;
3726;SDS011;1879;45.876;12.300;2023-08-12T08:37:38;6.60;;;6.10;;
3726;SDS011;1879;45.876;12.300;2023-08-12T08:40:07;6.60;;;5.60;;
3726;SDS011;1879;45.876;12.300;2023-08-12T08:42:35;5.90;;;5.50;;
3726;SDS011;1879;45.876;12.300;2023-08-12T08:45:05;5.07;;;4.63;;
3726;SDS011;1879;45.876;12.300;2023-08-12T08:47:40;5.83;;;5.33;;
3726;SDS011;1879;45.876;12.300;2023-08-12T08:50:09;6.43;;;5.20;;
3726;SDS011;1879;45.876;12.300;2023-08-12T08:52:37;6.03;;;5.53;;
3726;SDS011;1879;45.876;12.300;2023-08-12T08:55:04;5.20;;;4.80;;
3726;SDS011;1879;45.876;12.300;2023-08-12T08:57:32;5.37;;;4.93;;
3726;SDS011;1879;45.876;12.300;2023-08-12T08:59:59;5.73;;;5.20;;
3726;SDS011;1879;45.876;12.300;2023-08-12T09:02:26;6.10;;;5.60;;
3726;SDS011;1879;45.876;12.300;2023-08-12T09:04:53;6.97;;;6.30;;
3726;SDS011;1879;45.876;12.300;2023-08-12T09:07:22;7.37;;;6.73;;
3726;SDS011;1879;45.876;12.300;2023-08-12T09:09:49;55.50;;;29.37;;
3726;SDS011;1879;45.876;12.300;2023-08-12T09:12:19;9.17;;;7.73;;
3726;SDS011;1879;45.876;12.300;2023-08-12T09:14:47;20.50;;;13.53;;
3726;SDS011;1879;45.876;12.300;2023-08-12T09:17:14;57.67;;;32.00;;
3726;SDS011;1879;45.876;12.300;2023-08-12T09:19:41;52.40;;;31.33;;
3726;SDS011;1879;45.876;12.300;2023-08-12T09:22:08;44.83;;;28.80;;
3726;SDS011;1879;45.876;12.300;2023-08-12T09:24:37;8.47;;;7.33;;
3726;SDS011;1879;45.876;12.300;2023-08-12T09:27:04;6.20;;;5.70;;
3726;SDS011;1879;45.876;12.300;2023-08-12T09:29:31;25.47;;;15.20;;
3726;SDS011;1879;45.876;12.300;2023-08-12T09:32:06;10.10;;;9.03;;
3726;SDS011;1879;45.876;12.300;2023-08-12T09:34:36;6.80;;;6.07;;
3726;SDS011;1879;45.876;12.300;2023-08-12T09:37:03;5.30;;;4.90;;
3726;SDS011;1879;45.876;12.300;2023-08-12T09:39:30;5.53;;;5.03;;
3726;SDS011;1879;45.876;12.300;2023-08-12T09:42:00;5.80;;;5.20;;
3726;SDS011;1879;45.876;12.300;2023-08-12T09:44:27;5.87;;;5.37;;
3726;SDS011;1879;45.876;12.300;2023-08-12T09:46:56;6.73;;;6.00;;
3726;SDS011;1879;45.876;12.300;2023-08-12T09:49:24;5.80;;;5.30;;
3726;SDS011;1879;45.876;12.300;2023-08-12T09:51:53;6.63;;;5.63;;
3726;SDS011;1879;45.876;12.300;2023-08-12T09:54:20;6.67;;;5.70;;
3726;SDS011;1879;45.876;12.300;2023-08-12T09:56:49;9.63;;;7.27;;
3726;SDS011;1879;45.876;12.300;2023-08-12T09:59:23;5.60;;;5.20;;
3726;SDS011;1879;45.876;12.300;2023-08-12T10:01:53;36.57;;;20.60;;
3726;SDS011;1879;45.876;12.300;2023-08-12T10:04:21;17.70;;;11.87;;
3726;SDS011;1879;45.876;12.300;2023-08-12T10:06:49;25.30;;;15.77;;
3726;SDS011;1879;45.876;12.300;2023-08-12T10:09:16;11.50;;;6.87;;
3726;SDS011;1879;45.876;12.300;2023-08-12T10:11:45;17.57;;;11.67;;
3726;SDS011;1879;45.876;12.300;2023-08-12T10:14:13;13.13;;;10.10;;
3726;SDS011;1879;45.876;12.300;2023-08-12T10:16:44;11.47;;;8.20;;
3726;SDS011;1879;45.876;12.300;2023-08-12T10:19:12;7.40;;;6.33;;
3726;SDS011;1879;45.876;12.300;2023-08-12T10:21:42;5.83;;;5.30;;
3726;SDS011;1879;45.876;12.300;2023-08-12T10:24:10;5.73;;;5.23;;
3726;SDS011;1879;45.876;12.300;2023-08-12T10:26:38;5.17;;;4.67;;
3726;SDS011;1879;45.876;12.300;2023-08-12T10:29:06;6.23;;;5.60;;
3726;SDS011;1879;45.876;12.300;2023-08-12T10:31:34;5.67;;;5.17;;
3726;SDS011;1879;45.876;12.300;2023-08-12T10:34:03;5.37;;;4.83;;
3726;SDS011;1879;45.876;12.300;2023-08-12T10:36:31;6.40;;;5.80;;
3726;SDS011;1879;45.876;12.300;2023-08-12T10:38:59;4.90;;;4.50;;
3726;SDS011;1879;45.876;12.300;2023-08-12T10:41:27;5.30;;;4.90;;
3726;SDS011;1879;45.876;12.300;2023-08-12T10:43:58;6.07;;;4.90;;
3726;SDS011;1879;45.876;12.300;2023-08-12T10:46:30;5.40;;;5.00;;
3726;SDS011;1879;45.876;12.300;2023-08-12T10:48:59;5.23;;;4.73;;
3726;SDS011;1879;45.876;12.300;2023-08-12T10:51:39;5.03;;;4.63;;
3726;SDS011;1879;45.876;12.300;2023-08-12T10:54:13;9.60;;;4.53;;
3726;SDS011;1879;45.876;12.300;2023-08-12T11:02:27;4.93;;;4.30;;
3726;SDS011;1879;45.876;12.300;2023-08-12T11:04:57;4.90;;;4.60;;
3726;SDS011;1879;45.876;12.300;2023-08-12T11:07:28;5.30;;;4.90;;
3726;SDS011;1879;45.876;12.300;2023-08-12T11:09:59;4.63;;;4.23;;
3726;SDS011;1879;45.876;12.300;2023-08-12T11:12:31;5.07;;;4.20;;
3726;SDS011;1879;45.876;12.300;2023-08-12T11:15:00;4.90;;;4.50;;
3726;SDS011;1879;45.876;12.300;2023-08-12T11:17:32;5.23;;;4.83;;
3726;SDS011;1879;45.876;12.300;2023-08-12T11:20:02;5.00;;;4.13;;
3726;SDS011;1879;45.876;12.300;2023-08-12T11:22:32;9.80;;;4.53;;
3726;SDS011;1879;45.876;12.300;2023-08-12T11:25:01;4.80;;;4.40;;
3726;SDS011;1879;45.876;12.300;2023-08-12T11:27:34;5.17;;;4.77;;
3726;SDS011;1879;45.876;12.300;2023-08-12T11:30:04;4.77;;;4.40;;
3726;SDS011;1879;45.876;12.300;2023-08-12T11:32:31;4.63;;;4.23;;
3726;SDS011;1879;45.876;12.300;2023-08-12T11:34:59;4.63;;;4.33;;
3726;SDS011;1879;45.876;12.300;2023-08-12T11:37:27;7.03;;;4.67;;
3726;SDS011;1879;45.876;12.300;2023-08-12T11:39:54;5.23;;;4.07;;
3726;SDS011;1879;45.876;12.300;2023-08-12T11:42:21;4.53;;;4.13;;
3726;SDS011;1879;45.876;12.300;2023-08-12T11:44:48;4.30;;;4.00;;
3726;SDS011;1879;45.876;12.300;2023-08-12T11:47:16;4.83;;;4.43;;
3726;SDS011;1879;45.876;12.300;2023-08-12T11:49:43;4.20;;;3.90;;
3726;SDS011;1879;45.876;12.300;2023-08-12T11:52:10;4.37;;;4.07;;
3726;SDS011;1879;45.876;12.300;2023-08-12T11:54:40;4.23;;;3.93;;
3726;SDS011;1879;45.876;12.300;2023-08-12T11:57:07;4.30;;;4.00;;
3726;SDS011;1879;45.876;12.300;2023-08-12T11:59:35;4.40;;;4.00;;
3726;SDS011;1879;45.876;12.300;2023-08-12T12:02:02;3.63;;;3.43;;
3726;SDS011;1879;45.876;12.300;2023-08-12T12:04:30;3.50;;;3.27;;
3726;SDS011;1879;45.876;12.300;2023-08-12T12:06:58;4.00;;;3.70;;
3726;SDS011;1879;45.876;12.300;2023-08-12T12:09:25;4.57;;;3.90;;
3726;SDS011;1879;45.876;12.300;2023-08-12T12:11:53;5.10;;;4.70;;
3726;SDS011;1879;45.876;12.300;2023-08-12T12:14:21;4.23;;;3.77;;
3726;SDS011;1879;45.876;12.300;2023-08-12T12:16:48;4.17;;;3.87;;
3726;SDS011;1879;45.876;12.300;2023-08-12T12:19:16;4.00;;;3.67;;
3726;SDS011;1879;45.876;12.300;2023-08-12T12:21:45;4.73;;;4.20;;
3726;SDS011;1879;45.876;12.300;2023-08-12T12:24:13;4.20;;;3.90;;
3726;SDS011;1879;45.876;12.300;2023-08-12T12:26:40;4.00;;;3.70;;
3726;SDS011;1879;45.876;12.300;2023-08-12T12:29:09;3.80;;;3.50;;
3726;SDS011;1879;45.876;12.300;2023-08-12T12:31:38;3.43;;;3.23;;
3726;SDS011;1879;45.876;12.300;2023-08-12T12:34:06;4.00;;;3.70;;
3726;SDS011;1879;45.876;12.300;2023-08-12T12:36:35;3.50;;;3.20;;
3726;SDS011;1879;45.876;12.300;2023-08-12T12:39:03;4.10;;;3.73;;
3726;SDS011;1879;45.876;12.300;2023-08-12T12:41:31;3.63;;;3.40;;
3726;SDS011;1879;45.876;12.300;2023-08-12T12:43:59;3.73;;;3.43;;
3726;SDS011;1879;45.876;12.300;2023-08-12T12:46:28;7.27;;;3.50;;
3726;SDS011;1879;45.876;12.300;2023-08-12T12:48:56;3.77;;;3.50;;
3726;SDS011;1879;45.876;12.300;2023-08-12T12:51:23;4.20;;;3.90;;
3726;SDS011;1879;45.876;12.300;2023-08-12T12:53:50;3.83;;;3.53;;
3726;SDS011;1879;45.876;12.300;2023-08-12T12:56:17;3.30;;;3.03;;
3726;SDS011;1879;45.876;12.300;2023-08-12T12:58:44;3.80;;;3.50;;
3726;SDS011;1879;45.876;12.300;2023-08-12T13:01:12;3.63;;;3.33;;
3726;SDS011;1879;45.876;12.300;2023-08-12T13:03:41;3.90;;;3.53;;
3726;SDS011;1879;45.876;12.300;2023-08-12T13:06:08;3.30;;;3.00;;
3726;SDS011;1879;45.876;12.300;2023-08-12T13:08:35;3.30;;;3.00;;
3726;SDS011;1879;45.876;12.300;2023-08-12T13:11:02;4.77;;;3.00;;
3726;SDS011;1879;45.876;12.300;2023-08-12T13:13:29;3.27;;;3.07;;
3726;SDS011;1879;45.876;12.300;2023-08-12T13:15:56;3.97;;;3.30;;
3726;SDS011;1879;45.876;12.300;2023-08-12T13:18:23;3.43;;;3.13;;
3726;SDS011;1879;45.876;12.300;2023-08-12T13:20:51;3.70;;;3.40;;
3726;SDS011;1879;45.876;12.300;2023-08-12T13:23:18;3.07;;;2.87;;
3726;SDS011;1879;45.876;12.300;2023-08-12T13:25:45;3.30;;;3.10;;
3726;SDS011;1879;45.876;12.300;2023-08-12T13:28:12;3.83;;;3.53;;
3726;SDS011;1879;45.876;12.300;2023-08-12T13:30:39;3.63;;;3.33;;
3726;SDS011;1879;45.876;12.300;2023-08-12T13:33:06;3.63;;;3.40;;
3726;SDS011;1879;45.876;12.300;2023-08-12T13:35:33;3.43;;;3.10;;
3726;SDS011;1879;45.876;12.300;2023-08-12T13:38:01;3.80;;;3.50;;
3726;SDS011;1879;45.876;12.300;2023-08-12T13:40:29;3.40;;;3.13;;
3726;SDS011;1879;45.876;12.300;2023-08-12T13:42:56;3.93;;;3.63;;
3726;SDS011;1879;45.876;12.300;2023-08-12T13:45:23;4.37;;;3.97;;
3726;SDS011;1879;45.876;12.300;2023-08-12T13:47:50;3.70;;;3.40;;
3726;SDS011;1879;45.876;12.300;2023-08-12T13:50:17;3.70;;;3.40;;
3726;SDS011;1879;45.876;12.300;2023-08-12T13:52:45;5.60;;;3.90;;
3726;SDS011;1879;45.876;12.300;2023-08-12T13:55:14;5.00;;;3.40;;
3726;SDS011;1879;45.876;12.300;2023-08-12T13:57:41;3.73;;;3.43;;
3726;SDS011;1879;45.876;12.300;2023-08-12T14:00:08;5.93;;;4.17;;
3726;SDS011;1879;45.876;12.300;2023-08-12T14:02:38;3.80;;;3.50;;
3726;SDS011;1879;45.876;12.300;2023-08-12T14:05:05;3.83;;;3.53;;
3726;SDS011;1879;45.876;12.300;2023-08-12T14:07:33;6.27;;;3.50;;
3726;SDS011;1879;45.876;12.300;2023-08-12T14:10:00;4.10;;;3.80;;
3726;SDS011;1879;45.876;12.300;2023-08-12T14:12:29;3.97;;;3.70;;
3726;SDS011;1879;45.876;12.300;2023-08-12T14:14:56;4.40;;;3.93;;
3726;SDS011;1879;45.876;12.300;2023-08-12T14:17:23;3.20;;;3.00;;
3726;SDS011;1879;45.876;12.300;2023-08-12T14:19:51;3.57;;;3.27;;
3726;SDS011;1879;45.876;12.300;2023-08-12T14:22:18;3.50;;;3.27;;
3726;SDS011;1879;45.876;12.300;2023-08-12T14:24:45;3.80;;;3.50;;
3726;SDS011;1879;45.876;12.300;2023-08-12T14:27:13;3.87;;;3.57;;
3726;SDS011;1879;45.876;12.300;2023-08-12T14:29:44;3.20;;;3.00;;
3726;SDS011;1879;45.876;12.300;2023-08-12T14:32:11;7.27;;;3.33;;
3726;SDS011;1879;45.876;12.300;2023-08-12T14:34:41;4.83;;;4.20;;
3726;SDS011;1879;45.876;12.300;2023-08-12T14:37:10;4.47;;;4.07;;
3726;SDS011;1879;45.876;12.300;2023-08-12T14:39:37;5.57;;;3.83;;
3726;SDS011;1879;45.876;12.300;2023-08-12T14:42:04;3.60;;;3.30;;
3726;SDS011;1879;45.876;12.300;2023-08-12T14:44:33;4.73;;;4.33;;
3726;SDS011;1879;45.876;12.300;2023-08-12T14:47:02;4.13;;;3.83;;
3726;SDS011;1879;45.876;12.300;2023-08-12T14:49:30;4.10;;;3.80;;
3726;SDS011;1879;45.876;12.300;2023-08-12T14:51:57;3.83;;;3.53;;
3726;SDS011;1879;45.876;12.300;2023-08-12T14:54:24;4.30;;;3.90;;
3726;SDS011;1879;45.876;12.300;2023-08-12T14:56:51;4.27;;;3.90;;
3726;SDS011;1879;45.876;12.300;2023-08-12T14:59:18;4.23;;;3.93;;
3726;SDS011;1879;45.876;12.300;2023-08-12T15:01:45;4.17;;;3.87;;
3726;SDS011;1879;45.876;12.300;2023-08-12T15:04:13;4.13;;;3.50;;
3726;SDS011;1879;45.876;12.300;2023-08-12T15:06:41;4.93;;;3.90;;
3726;SDS011;1879;45.876;12.300;2023-08-12T15:09:08;4.40;;;4.10;;